createdAt,value
2017-04-10T00:00:57.300Z,0
2017-04-10T00:01:57.333Z,0
2017-04-10T00:02:57.354Z,0
2017-04-10T00:03:57.367Z,0
2017-04-10T00:04:57.076Z,0
2017-04-10T00:05:57.412Z,0
2017-04-10T00:06:57.429Z,0
2017-04-10T00:07:57.448Z,0
2017-04-10T00:08:57.473Z,0
2017-04-10T00:09:57.183Z,0
2017-04-10T00:10:57.508Z,0
2017-04-10T00:11:57.530Z,0
2017-04-10T00:12:57.542Z,0
2017-04-10T00:13:57.564Z,0
2017-04-10T00:14:57.578Z,0
2017-04-10T00:15:57.601Z,0
2017-04-10T00:16:57.628Z,0
2017-04-10T00:17:57.651Z,0
2017-04-10T00:18:57.343Z,0
2017-04-10T00:19:57.372Z,0
2017-04-10T00:20:57.699Z,0
2017-04-10T00:21:57.723Z,0
2017-04-10T00:22:57.743Z,0
2017-04-10T00:23:57.772Z,0
2017-04-10T00:24:57.781Z,0
2017-04-10T00:25:57.792Z,0
2017-04-10T00:26:57.506Z,0
2017-04-10T00:27:57.848Z,0
2017-04-10T00:28:57.860Z,0
2017-04-10T00:29:57.879Z,0
2017-04-10T00:30:57.897Z,0
2017-04-10T00:31:57.924Z,0
2017-04-10T00:32:57.941Z,0
2017-04-10T00:33:57.961Z,0
2017-04-10T00:34:57.981Z,0
2017-04-10T00:35:58.000Z,0
2017-04-10T00:36:58.012Z,0
2017-04-10T00:37:58.081Z,0
2017-04-10T00:38:58.057Z,0
2017-04-10T00:39:58.071Z,0
2017-04-10T00:40:58.093Z,0
2017-04-10T00:41:58.108Z,0
2017-04-10T00:42:58.154Z,0
2017-04-10T00:43:58.148Z,0
2017-04-10T00:44:58.164Z,0
2017-04-10T00:45:58.183Z,0
2017-04-10T00:46:58.202Z,0
2017-04-10T00:47:58.237Z,0
2017-04-10T00:48:57.930Z,0
2017-04-10T00:49:58.374Z,0
2017-04-10T00:50:57.968Z,0
2017-04-10T00:51:57.991Z,0
2017-04-10T00:52:58.424Z,0
2017-04-10T00:53:58.432Z,0
2017-04-10T00:54:58.469Z,0
2017-04-10T00:55:58.477Z,0
2017-04-10T00:56:58.485Z,0
2017-04-10T00:57:58.545Z,0
2017-04-10T00:58:58.517Z,0
2017-04-10T00:59:58.525Z,0
2017-04-10T01:00:58.535Z,0
2017-04-10T01:01:58.490Z,0
2017-04-10T01:02:58.654Z,0
2017-04-10T01:03:58.642Z,0
2017-04-10T01:04:58.660Z,0
2017-04-10T01:05:58.671Z,0
2017-04-10T01:06:58.775Z,0
2017-04-10T01:07:58.785Z,0
2017-04-10T01:08:58.796Z,0
2017-04-10T01:09:58.802Z,0
2017-04-10T01:10:58.802Z,0
2017-04-10T01:11:58.809Z,0
2017-04-10T01:12:58.822Z,0
2017-04-10T01:13:58.826Z,0
2017-04-10T01:14:58.544Z,0
2017-04-10T01:15:58.968Z,0
2017-04-10T01:16:58.974Z,0
2017-04-10T01:17:58.993Z,0
2017-04-10T01:18:58.903Z,0
2017-04-10T01:19:58.931Z,0
2017-04-10T01:20:58.945Z,0
2017-04-10T01:21:58.976Z,0
2017-04-10T01:22:58.787Z,0
2017-04-10T01:23:58.796Z,0
2017-04-10T01:24:58.992Z,0
2017-04-10T01:25:58.997Z,0
2017-04-10T01:26:59.012Z,0
2017-04-10T01:27:58.707Z,0
2017-04-10T01:28:59.024Z,0
2017-04-10T01:29:59.119Z,0
2017-04-10T01:30:59.036Z,0
2017-04-10T01:31:59.060Z,0
2017-04-10T01:32:59.080Z,0
2017-04-10T01:33:59.103Z,0
2017-04-10T01:34:59.119Z,0
2017-04-10T01:35:59.136Z,0
2017-04-10T01:36:58.847Z,0
2017-04-10T01:37:59.179Z,0
2017-04-10T01:38:59.196Z,0
2017-04-10T01:39:59.206Z,0
2017-04-10T01:40:59.229Z,0
2017-04-10T01:41:58.930Z,0
2017-04-10T01:42:59.272Z,0
2017-04-10T01:43:59.285Z,0
2017-04-10T01:44:59.340Z,0
2017-04-10T01:45:59.317Z,0
2017-04-10T01:46:59.348Z,0
2017-04-10T01:47:59.352Z,0
2017-04-10T01:48:59.372Z,0
2017-04-10T01:49:59.400Z,0
2017-04-10T01:50:59.105Z,0
2017-04-10T01:51:59.436Z,0
2017-04-10T01:52:59.457Z,0
2017-04-10T01:53:59.148Z,0
2017-04-10T01:54:59.483Z,0
2017-04-10T01:55:59.187Z,0
2017-04-10T01:56:59.521Z,0
2017-04-10T01:57:59.233Z,0
2017-04-10T01:58:59.243Z,0
2017-04-10T01:59:59.570Z,0
2017-04-10T02:00:59.289Z,0
2017-04-10T02:01:59.614Z,0
2017-04-10T02:02:59.633Z,0
2017-04-10T02:03:59.665Z,0
2017-04-10T02:04:59.673Z,0
2017-04-10T02:05:59.690Z,0
2017-04-10T02:06:59.704Z,0
2017-04-10T02:07:59.764Z,0
2017-04-10T02:08:59.737Z,0
2017-04-10T02:09:59.765Z,0
2017-04-10T02:10:59.789Z,0
2017-04-10T02:11:59.806Z,0
2017-04-10T02:12:59.816Z,0
2017-04-10T02:13:59.847Z,0
2017-04-10T02:14:59.866Z,0
2017-04-10T02:15:59.876Z,0
2017-04-10T02:16:59.925Z,0
2017-04-10T02:17:59.913Z,0
2017-04-10T02:18:59.933Z,0
2017-04-10T02:19:59.633Z,0
2017-04-10T02:20:59.965Z,0
2017-04-10T02:21:59.979Z,0
2017-04-10T02:23:00.016Z,0
2017-04-10T02:24:00.021Z,0
2017-04-10T02:25:00.033Z,0
2017-04-10T02:26:00.059Z,0
2017-04-10T02:27:00.073Z,0
2017-04-10T02:28:00.106Z,0
2017-04-10T02:29:00.113Z,0
2017-04-10T02:30:00.133Z,0
2017-04-10T02:31:00.160Z,0
2017-04-10T02:32:00.164Z,0
2017-04-10T02:33:00.186Z,0
2017-04-10T02:34:00.269Z,0
2017-04-10T02:35:00.223Z,0
2017-04-10T02:36:00.243Z,0
2017-04-10T02:37:00.252Z,0
2017-04-10T02:38:00.269Z,0
2017-04-10T02:39:00.288Z,0
2017-04-10T02:40:00.310Z,0
2017-04-10T02:41:00.328Z,0
2017-04-10T02:42:00.355Z,0
2017-04-10T02:43:00.365Z,0
2017-04-10T02:44:00.442Z,0
2017-04-10T02:45:00.432Z,0
2017-04-10T02:46:00.424Z,0
2017-04-10T02:47:00.439Z,0
2017-04-10T02:48:00.458Z,0
2017-04-10T02:49:00.480Z,0
2017-04-10T02:50:00.496Z,0
2017-04-10T02:51:00.510Z,0
2017-04-10T02:52:00.640Z,0
2017-04-10T02:53:00.652Z,0
2017-04-10T02:54:00.659Z,0
2017-04-10T02:55:00.695Z,0
2017-04-10T02:56:00.702Z,0
2017-04-10T02:57:00.701Z,0
2017-04-10T02:58:00.716Z,0
2017-04-10T02:59:00.714Z,0
2017-04-10T03:00:00.724Z,0
2017-04-10T03:01:00.780Z,0
2017-04-10T03:02:00.799Z,0
2017-04-10T03:03:00.798Z,0
2017-04-10T03:04:00.819Z,0
2017-04-10T03:05:00.818Z,0
2017-04-10T03:06:00.786Z,0
2017-04-10T03:07:00.484Z,0
2017-04-10T03:08:00.918Z,0
2017-04-10T03:09:00.924Z,0
2017-04-10T03:10:00.629Z,0
2017-04-10T03:11:00.963Z,0
2017-04-10T03:12:01.003Z,0
2017-04-10T03:13:01.065Z,0
2017-04-10T03:14:01.075Z,0
2017-04-10T03:15:01.082Z,0
2017-04-10T03:16:01.104Z,0
2017-04-10T03:17:01.098Z,0
2017-04-10T03:18:01.104Z,0
2017-04-10T03:19:01.114Z,0
2017-04-10T03:20:01.119Z,0
2017-04-10T03:21:01.259Z,0
2017-04-10T03:22:01.260Z,0
2017-04-10T03:23:01.270Z,0
2017-04-10T03:24:01.284Z,0
2017-04-10T03:25:01.270Z,0
2017-04-10T03:26:01.233Z,0
2017-04-10T03:27:01.239Z,0
2017-04-10T03:28:01.254Z,0
2017-04-10T03:29:01.256Z,0
2017-04-10T03:30:01.291Z,0
2017-04-10T03:31:01.288Z,0
2017-04-10T03:32:01.297Z,0
2017-04-10T03:33:01.308Z,0
2017-04-10T03:34:01.313Z,0
2017-04-10T03:35:01.371Z,0
2017-04-10T03:36:01.319Z,0
2017-04-10T03:37:01.332Z,0
2017-04-10T03:38:01.346Z,0
2017-04-10T03:39:01.364Z,0
2017-04-10T03:40:01.196Z,0
2017-04-10T03:41:01.399Z,0
2017-04-10T03:42:01.417Z,0
2017-04-10T03:43:01.210Z,0
2017-04-10T03:44:01.448Z,0
2017-04-10T03:45:01.466Z,0
2017-04-10T03:46:01.483Z,0
2017-04-10T03:47:01.508Z,0
2017-04-10T03:48:01.206Z,0
2017-04-10T03:49:01.538Z,0
2017-04-10T03:50:01.559Z,0
2017-04-10T03:51:01.565Z,0
2017-04-10T03:52:01.281Z,0
2017-04-10T03:53:01.786Z,0
2017-04-10T03:54:01.623Z,0
2017-04-10T03:55:01.683Z,0
2017-04-10T03:56:01.357Z,0
2017-04-10T03:57:01.678Z,0
2017-04-10T03:58:01.693Z,0
2017-04-10T03:59:01.713Z,0
2017-04-10T04:00:01.743Z,0
2017-04-10T04:01:01.796Z,0
2017-04-10T04:02:01.768Z,0
2017-04-10T04:03:01.786Z,0
2017-04-10T04:04:01.486Z,0
2017-04-10T04:05:01.812Z,0
2017-04-10T04:06:01.835Z,0
2017-04-10T04:07:01.857Z,0
2017-04-10T04:08:01.869Z,0
2017-04-10T04:09:01.884Z,0
2017-04-10T04:10:01.904Z,0
2017-04-10T04:11:01.664Z,0
2017-04-10T04:12:01.774Z,0
2017-04-10T04:13:01.958Z,0
2017-04-10T04:14:01.976Z,0
2017-04-10T04:15:02.018Z,0
2017-04-10T04:16:02.197Z,0
2017-04-10T04:17:02.034Z,0
2017-04-10T04:18:02.067Z,0
2017-04-10T04:19:02.055Z,0
2017-04-10T04:20:02.075Z,0
2017-04-10T04:21:02.258Z,0
2017-04-10T04:22:02.239Z,0
2017-04-10T04:23:02.133Z,0
2017-04-10T04:24:02.150Z,0
2017-04-10T04:25:02.172Z,0
2017-04-10T04:26:02.187Z,0
2017-04-10T04:27:02.232Z,0
2017-04-10T04:28:02.218Z,0
2017-04-10T04:29:02.239Z,0
2017-04-10T04:30:01.952Z,0
2017-04-10T04:31:02.268Z,0
2017-04-10T04:32:02.296Z,0
2017-04-10T04:33:02.313Z,0
2017-04-10T04:34:02.319Z,0
2017-04-10T04:35:02.354Z,0
2017-04-10T04:36:02.370Z,0
2017-04-10T04:37:02.371Z,0
2017-04-10T04:38:02.394Z,0
2017-04-10T04:39:02.399Z,0
2017-04-10T04:40:02.419Z,0
2017-04-10T04:41:02.438Z,0
2017-04-10T04:42:02.461Z,0
2017-04-10T04:43:02.509Z,0
2017-04-10T04:44:02.628Z,0
2017-04-10T04:45:02.509Z,0
2017-04-10T04:46:02.531Z,0
2017-04-10T04:47:02.661Z,0
2017-04-10T04:48:02.577Z,0
2017-04-10T04:49:02.580Z,0
2017-04-10T04:50:02.602Z,0
2017-04-10T04:51:02.611Z,0
2017-04-10T04:52:02.679Z,0
2017-04-10T04:53:02.777Z,0
2017-04-10T04:54:02.809Z,0
2017-04-10T04:55:02.712Z,0
2017-04-10T04:56:02.707Z,0
2017-04-10T04:57:02.837Z,0
2017-04-10T04:58:02.738Z,0
2017-04-10T04:59:02.848Z,0
2017-04-10T05:00:02.774Z,0
2017-04-10T05:01:02.778Z,0
2017-04-10T05:02:02.831Z,0
2017-04-10T05:03:02.828Z,0
2017-04-10T05:04:02.834Z,0
2017-04-10T05:05:02.862Z,0
2017-04-10T05:06:02.879Z,0
2017-04-10T05:07:02.895Z,0
2017-04-10T05:08:02.930Z,0
2017-04-10T05:09:03.016Z,0
2017-04-10T05:10:03.012Z,0
2017-04-10T05:11:02.965Z,0
2017-04-10T05:12:03.101Z,0
2017-04-10T05:13:02.685Z,0
2017-04-10T05:14:03.234Z,0
2017-04-10T05:15:03.025Z,0
2017-04-10T05:16:03.054Z,0
2017-04-10T05:17:03.162Z,0
2017-04-10T05:18:02.788Z,0
2017-04-10T05:19:03.102Z,0
2017-04-10T05:20:02.806Z,0
2017-04-10T05:21:03.178Z,0
2017-04-10T05:22:03.154Z,0
2017-04-10T05:23:03.180Z,0
2017-04-10T05:24:03.191Z,0
2017-04-10T05:25:03.197Z,0
2017-04-10T05:26:03.222Z,0
2017-04-10T05:27:03.237Z,0
2017-04-10T05:28:03.263Z,0
2017-04-10T05:29:03.261Z,0
2017-04-10T05:30:03.300Z,0
2017-04-10T05:31:02.991Z,5
2017-04-10T05:32:03.340Z,5
2017-04-10T05:33:03.329Z,5
2017-04-10T05:34:03.351Z,5
2017-04-10T05:35:03.376Z,5
2017-04-10T05:36:03.397Z,5
2017-04-10T05:37:03.415Z,5
2017-04-10T05:38:03.437Z,5
2017-04-10T05:39:03.441Z,5
2017-04-10T05:40:03.472Z,5
2017-04-10T05:41:03.482Z,5
2017-04-10T05:42:03.491Z,5
2017-04-10T05:43:03.516Z,5
2017-04-10T05:44:03.538Z,5
2017-04-10T05:45:03.543Z,5
2017-04-10T05:46:03.257Z,5
2017-04-10T05:47:03.587Z,5
2017-04-10T05:48:03.605Z,5
2017-04-10T05:49:03.628Z,5
2017-04-10T05:50:03.638Z,5
2017-04-10T05:51:03.647Z,5
2017-04-10T05:52:03.385Z,5
2017-04-10T05:53:03.378Z,5
2017-04-10T05:54:03.918Z,5
2017-04-10T05:55:03.722Z,5
2017-04-10T05:56:03.749Z,5
2017-04-10T05:57:03.446Z,5
2017-04-10T05:58:03.780Z,5
2017-04-10T05:59:03.477Z,5
2017-04-10T06:00:03.829Z,5
2017-04-10T06:01:03.823Z,5
2017-04-10T06:02:03.841Z,5
2017-04-10T06:03:03.861Z,5
2017-04-10T06:04:03.886Z,5
2017-04-10T06:05:03.894Z,5
2017-04-10T06:06:03.908Z,5
2017-04-10T06:07:03.945Z,5
2017-04-10T06:08:03.657Z,5
2017-04-10T06:09:03.960Z,5
2017-04-10T06:10:03.982Z,5
2017-04-10T06:11:04.088Z,5
2017-04-10T06:12:04.259Z,5
2017-04-10T06:13:04.040Z,5
2017-04-10T06:14:03.740Z,5
2017-04-10T06:15:03.754Z,5
2017-04-10T06:16:03.863Z,5
2017-04-10T06:17:03.788Z,5
2017-04-10T06:18:03.808Z,5
2017-04-10T06:19:04.137Z,5
2017-04-10T06:20:04.163Z,5
2017-04-10T06:21:04.164Z,5
2017-04-10T06:22:03.890Z,5
2017-04-10T06:23:03.897Z,5
2017-04-10T06:24:04.217Z,5
2017-04-10T06:25:04.242Z,5
2017-04-10T06:26:03.961Z,5
2017-04-10T06:27:04.308Z,5
2017-04-10T06:28:04.291Z,5
2017-04-10T06:29:04.311Z,5
2017-04-10T06:30:04.327Z,5
2017-04-10T06:31:04.345Z,5
2017-04-10T06:32:04.425Z,5
2017-04-10T06:33:04.401Z,5
2017-04-10T06:34:04.445Z,5
2017-04-10T06:35:04.406Z,5
2017-04-10T06:36:04.433Z,5
2017-04-10T06:37:04.442Z,5
2017-04-10T06:38:04.462Z,5
2017-04-10T06:39:04.487Z,5
2017-04-10T06:40:04.604Z,5
2017-04-10T06:41:04.528Z,5
2017-04-10T06:42:04.535Z,5
2017-04-10T06:43:04.547Z,5
2017-04-10T06:44:04.564Z,5
2017-04-10T06:45:04.589Z,5
2017-04-10T06:46:04.612Z,5
2017-04-10T06:47:04.007Z,5
2017-04-10T06:48:04.638Z,5
2017-04-10T06:49:04.660Z,5
2017-04-10T06:50:04.683Z,5
2017-04-10T06:51:04.696Z,5
2017-04-10T06:52:04.720Z,5
2017-04-10T06:53:04.731Z,5
2017-04-10T06:54:04.742Z,5
2017-04-10T06:55:04.773Z,5
2017-04-10T06:56:04.830Z,5
2017-04-10T06:57:04.800Z,5
2017-04-10T06:58:04.815Z,5
2017-04-10T06:59:04.836Z,5
2017-04-10T07:00:04.844Z,5
2017-04-10T07:01:04.898Z,5
2017-04-10T07:02:04.572Z,5
2017-04-10T07:03:04.635Z,5
2017-04-10T07:04:04.923Z,5
2017-04-10T07:05:05.060Z,5
2017-04-10T07:06:05.071Z,5
2017-04-10T07:07:04.986Z,5
2017-04-10T07:08:05.007Z,5
2017-04-10T07:09:05.021Z,5
2017-04-10T07:10:05.034Z,5
2017-04-10T07:11:05.061Z,5
2017-04-10T07:12:05.171Z,5
2017-04-10T07:13:05.085Z,5
2017-04-10T07:14:05.128Z,5
2017-04-10T07:15:05.128Z,5
2017-04-10T07:16:05.149Z,5
2017-04-10T07:17:05.162Z,5
2017-04-10T07:18:05.212Z,5
2017-04-10T07:19:05.015Z,5
2017-04-10T07:20:05.360Z,5
2017-04-10T07:21:05.364Z,5
2017-04-10T07:22:05.277Z,5
2017-04-10T07:23:05.268Z,5
2017-04-10T07:24:05.304Z,5
2017-04-10T07:25:04.994Z,5
2017-04-10T07:26:05.331Z,5
2017-04-10T07:27:05.346Z,5
2017-04-10T07:28:05.378Z,5
2017-04-10T07:29:05.375Z,5
2017-04-10T07:30:05.105Z,5
2017-04-10T07:31:05.418Z,5
2017-04-10T07:32:05.125Z,5
2017-04-10T07:33:05.141Z,5
2017-04-10T07:34:04.852Z,5
2017-04-10T07:35:05.514Z,5
2017-04-10T07:36:05.516Z,5
2017-04-10T07:37:05.532Z,5
2017-04-10T07:38:05.288Z,5
2017-04-10T07:39:05.585Z,5
2017-04-10T07:40:05.267Z,5
2017-04-10T07:41:05.600Z,5
2017-04-10T07:42:05.645Z,5
2017-04-10T07:43:05.637Z,5
2017-04-10T07:44:05.657Z,5
2017-04-10T07:45:05.367Z,5
2017-04-10T07:46:05.384Z,5
2017-04-10T07:47:05.395Z,5
2017-04-10T07:48:05.422Z,5
2017-04-10T07:49:05.437Z,5
2017-04-10T07:50:05.448Z,5
2017-04-10T07:51:05.478Z,5
2017-04-10T07:52:05.492Z,5
2017-04-10T07:53:05.513Z,5
2017-04-10T07:54:05.884Z,5
2017-04-10T07:55:05.550Z,5
2017-04-10T07:56:05.576Z,5
2017-04-10T07:57:05.593Z,5
2017-04-10T07:58:05.612Z,5
2017-04-10T07:59:05.312Z,5
2017-04-10T08:00:05.800Z,5
2017-04-10T08:01:05.657Z,5
2017-04-10T08:02:06.125Z,5
2017-04-10T08:03:06.135Z,5
2017-04-10T08:04:05.834Z,5
2017-04-10T08:05:06.139Z,5
2017-04-10T08:06:05.873Z,5
2017-04-10T08:07:06.229Z,5
2017-04-10T08:08:06.309Z,10
2017-04-10T08:09:06.279Z,10
2017-04-10T08:10:06.383Z,10
2017-04-10T08:11:06.297Z,10
2017-04-10T08:12:05.984Z,10
2017-04-10T08:13:05.994Z,10
2017-04-10T08:14:06.315Z,10
2017-04-10T08:15:06.449Z,10
2017-04-10T08:16:06.266Z,10
2017-04-10T08:17:06.283Z,10
2017-04-10T08:18:06.307Z,10
2017-04-10T08:19:06.317Z,10
2017-04-10T08:20:06.354Z,10
2017-04-10T08:21:06.366Z,10
2017-04-10T08:22:05.772Z,10
2017-04-10T08:23:06.398Z,10
2017-04-10T08:24:06.418Z,10
2017-04-10T08:25:06.708Z,10
2017-04-10T08:26:06.717Z,10
2017-04-10T08:27:06.726Z,10
2017-04-10T08:28:06.710Z,10
2017-04-10T08:29:06.732Z,10
2017-04-10T08:30:06.746Z,10
2017-04-10T08:31:06.749Z,10
2017-04-10T08:32:06.759Z,10
2017-04-10T08:33:06.745Z,10
2017-04-10T08:34:06.816Z,10
2017-04-10T08:35:06.640Z,10
2017-04-10T08:36:06.652Z,10
2017-04-10T08:37:06.060Z,10
2017-04-10T08:38:06.695Z,10
2017-04-10T08:39:06.721Z,10
2017-04-10T08:40:06.736Z,10
2017-04-10T08:41:06.756Z,10
2017-04-10T08:42:06.787Z,10
2017-04-10T08:43:06.803Z,10
2017-04-10T08:44:06.503Z,10
2017-04-10T08:45:06.522Z,10
2017-04-10T08:46:06.855Z,10
2017-04-10T08:47:06.879Z,10
2017-04-10T08:48:06.895Z,10
2017-04-10T08:49:06.921Z,10
2017-04-10T08:50:06.944Z,10
2017-04-10T08:51:06.953Z,10
2017-04-10T08:52:06.974Z,10
2017-04-10T08:53:07.010Z,10
2017-04-10T08:54:06.697Z,10
2017-04-10T08:55:07.042Z,10
2017-04-10T08:56:07.057Z,10
2017-04-10T08:57:06.761Z,10
2017-04-10T08:58:07.092Z,10
2017-04-10T08:59:07.228Z,10
2017-04-10T09:00:06.823Z,10
2017-04-10T09:01:06.844Z,10
2017-04-10T09:02:07.279Z,10
2017-04-10T09:03:07.276Z,10
2017-04-10T09:04:06.906Z,10
2017-04-10T09:05:07.333Z,10
2017-04-10T09:06:06.948Z,10
2017-04-10T09:07:06.967Z,10
2017-04-10T09:08:06.988Z,10
2017-04-10T09:09:06.712Z,10
2017-04-10T09:10:07.028Z,10
2017-04-10T09:11:07.161Z,10
2017-04-10T09:12:07.157Z,10
2017-04-10T09:13:07.190Z,10
2017-04-10T09:14:07.517Z,10
2017-04-10T09:15:07.217Z,10
2017-04-10T09:16:07.554Z,10
2017-04-10T09:17:07.312Z,10
2017-04-10T09:18:07.319Z,10
2017-04-10T09:19:07.332Z,10
2017-04-10T09:20:07.347Z,10
2017-04-10T09:21:07.365Z,10
2017-04-10T09:22:07.485Z,10
2017-04-10T09:23:07.801Z,10
2017-04-10T09:24:07.505Z,10
2017-04-10T09:25:07.829Z,15
2017-04-10T09:26:07.513Z,15
2017-04-10T09:27:07.835Z,15
2017-04-10T09:28:07.532Z,15
2017-04-10T09:29:07.190Z,15
2017-04-10T09:30:07.609Z,15
2017-04-10T09:31:07.824Z,15
2017-04-10T09:32:07.825Z,15
2017-04-10T09:33:07.213Z,15
2017-04-10T09:34:07.858Z,15
2017-04-10T09:35:07.861Z,15
2017-04-10T09:36:07.882Z,15
2017-04-10T09:37:07.906Z,15
2017-04-10T09:38:07.609Z,15
2017-04-10T09:39:07.506Z,15
2017-04-10T09:40:07.518Z,15
2017-04-10T09:41:07.714Z,15
2017-04-10T09:42:08.012Z,15
2017-04-10T09:43:07.493Z,15
2017-04-10T09:44:08.050Z,15
2017-04-10T09:45:07.763Z,15
2017-04-10T09:46:07.514Z,15
2017-04-10T09:47:07.513Z,15
2017-04-10T09:48:08.139Z,15
2017-04-10T09:49:07.538Z,15
2017-04-10T09:50:07.571Z,15
2017-04-10T09:51:08.202Z,15
2017-04-10T09:52:07.924Z,15
2017-04-10T09:53:07.935Z,15
2017-04-10T09:54:07.967Z,15
2017-04-10T09:55:08.287Z,15
2017-04-10T09:56:08.322Z,15
2017-04-10T09:57:08.019Z,15
2017-04-10T09:58:08.045Z,20
2017-04-10T09:59:08.066Z,20
2017-04-10T10:00:08.089Z,20
2017-04-10T10:01:08.103Z,20
2017-04-10T10:02:08.521Z,20
2017-04-10T10:03:08.152Z,20
2017-04-10T10:04:07.877Z,20
2017-04-10T10:05:08.195Z,20
2017-04-10T10:06:07.947Z,20
2017-04-10T10:07:07.928Z,20
2017-04-10T10:08:08.259Z,20
2017-04-10T10:09:07.971Z,20
2017-04-10T10:10:07.707Z,20
2017-04-10T10:11:08.016Z,20
2017-04-10T10:12:08.350Z,20
2017-04-10T10:13:08.372Z,20
2017-04-10T10:14:08.390Z,20
2017-04-10T10:15:08.727Z,20
2017-04-10T10:16:08.757Z,20
2017-04-10T10:17:08.473Z,20
2017-04-10T10:18:08.168Z,20
2017-04-10T10:19:08.515Z,20
2017-04-10T10:20:07.902Z,20
2017-04-10T10:21:08.589Z,20
2017-04-10T10:22:08.263Z,20
2017-04-10T10:23:08.910Z,20
2017-04-10T10:24:08.620Z,25
2017-04-10T10:25:08.954Z,20
2017-04-10T10:26:08.670Z,20
2017-04-10T10:27:09.027Z,20
2017-04-10T10:28:08.719Z,25
2017-04-10T10:29:08.727Z,20
2017-04-10T10:30:09.101Z,25
2017-04-10T10:31:08.786Z,25
2017-04-10T10:32:08.819Z,25
2017-04-10T10:33:08.524Z,25
2017-04-10T10:34:09.158Z,25
2017-04-10T10:35:08.867Z,25
2017-04-10T10:36:08.893Z,25
2017-04-10T10:37:08.931Z,25
2017-04-10T10:38:08.938Z,25
2017-04-10T10:39:08.647Z,25
2017-04-10T10:40:08.979Z,25
2017-04-10T10:41:09.323Z,25
2017-04-10T10:42:09.026Z,25
2017-04-10T10:43:09.063Z,25
2017-04-10T10:44:09.506Z,25
2017-04-10T10:45:08.504Z,25
2017-04-10T10:46:09.521Z,25
2017-04-10T10:47:09.545Z,25
2017-04-10T10:48:08.859Z,30
2017-04-10T10:49:08.937Z,30
2017-04-10T10:50:08.909Z,30
2017-04-10T10:51:08.934Z,30
2017-04-10T10:52:09.353Z,30
2017-04-10T10:53:09.410Z,30
2017-04-10T10:54:09.540Z,30
2017-04-10T10:55:09.231Z,35
2017-04-10T10:56:09.477Z,35
2017-04-10T10:57:09.558Z,35
2017-04-10T10:58:09.793Z,35
2017-04-10T10:59:09.799Z,35
2017-04-10T11:00:09.461Z,35
2017-04-10T11:01:09.799Z,35
2017-04-10T11:02:09.655Z,35
2017-04-10T11:03:09.528Z,35
2017-04-10T11:04:09.456Z,35
2017-04-10T11:05:09.890Z,35
2017-04-10T11:06:09.599Z,35
2017-04-10T11:07:09.936Z,40
2017-04-10T11:08:09.765Z,40
2017-04-10T11:09:09.175Z,40
2017-04-10T11:10:09.777Z,40
2017-04-10T11:11:09.718Z,40
2017-04-10T11:12:10.058Z,40
2017-04-10T11:13:09.766Z,45
2017-04-10T11:14:09.187Z,45
2017-04-10T11:15:10.135Z,40
2017-04-10T11:16:09.855Z,40
2017-04-10T11:17:09.876Z,40
2017-04-10T11:18:09.584Z,35
2017-04-10T11:19:09.613Z,35
2017-04-10T11:20:09.629Z,35
2017-04-10T11:21:09.969Z,35
2017-04-10T11:22:10.005Z,35
2017-04-10T11:23:10.019Z,40
2017-04-10T11:24:10.362Z,40
2017-04-10T11:25:10.065Z,35
2017-04-10T11:26:10.090Z,35
2017-04-10T11:27:10.435Z,35
2017-04-10T11:28:10.466Z,35
2017-04-10T11:29:10.517Z,35
2017-04-10T11:30:09.882Z,35
2017-04-10T11:31:10.214Z,35
2017-04-10T11:32:10.243Z,35
2017-04-10T11:33:09.324Z,35
2017-04-10T11:34:09.994Z,35
2017-04-10T11:35:10.323Z,35
2017-04-10T11:36:10.349Z,35
2017-04-10T11:37:10.366Z,35
2017-04-10T11:38:10.114Z,35
2017-04-10T11:39:10.108Z,35
2017-04-10T11:40:10.446Z,35
2017-04-10T11:41:10.792Z,35
2017-04-10T11:42:09.580Z,40
2017-04-10T11:43:10.834Z,35
2017-04-10T11:44:10.552Z,40
2017-04-10T11:45:10.570Z,40
2017-04-10T11:46:10.919Z,40
2017-04-10T11:47:10.715Z,40
2017-04-10T11:48:10.863Z,35
2017-04-10T11:49:10.360Z,30
2017-04-10T11:50:10.723Z,30
2017-04-10T11:51:11.053Z,40
2017-04-10T11:52:10.750Z,40
2017-04-10T11:53:10.772Z,40
2017-04-10T11:54:11.128Z,40
2017-04-10T11:55:10.649Z,30
2017-04-10T11:56:11.174Z,35
2017-04-10T11:57:10.891Z,30
2017-04-10T11:58:11.218Z,35
2017-04-10T11:59:10.300Z,35
2017-04-10T12:00:11.260Z,30
2017-04-10T12:01:10.671Z,35
2017-04-10T12:02:11.321Z,25
2017-04-10T12:03:11.341Z,35
2017-04-10T12:04:11.396Z,35
2017-04-10T12:05:11.082Z,35
2017-04-10T12:06:10.793Z,35
2017-04-10T12:07:11.154Z,40
2017-04-10T12:08:11.168Z,40
2017-04-10T12:09:11.189Z,40
2017-04-10T12:10:11.208Z,40
2017-04-10T12:11:11.237Z,40
2017-04-10T12:12:10.637Z,40
2017-04-10T12:13:11.617Z,40
2017-04-10T12:14:11.323Z,45
2017-04-10T12:15:11.346Z,45
2017-04-10T12:16:11.372Z,50
2017-04-10T12:17:11.403Z,55
2017-04-10T12:18:11.422Z,55
2017-04-10T12:19:11.445Z,60
2017-04-10T12:20:11.469Z,60
2017-04-10T12:21:11.807Z,60
2017-04-10T12:22:11.838Z,55
2017-04-10T12:23:11.860Z,45
2017-04-10T12:24:11.266Z,50
2017-04-10T12:25:11.291Z,50
2017-04-10T12:26:11.671Z,45
2017-04-10T12:27:11.971Z,45
2017-04-10T12:28:11.685Z,45
2017-04-10T12:29:12.020Z,40
2017-04-10T12:30:11.734Z,40
2017-04-10T12:31:12.075Z,35
2017-04-10T12:32:11.785Z,40
2017-04-10T12:33:12.117Z,40
2017-04-10T12:34:11.933Z,50
2017-04-10T12:35:12.269Z,50
2017-04-10T12:36:12.432Z,50
2017-04-10T12:37:12.121Z,50
2017-04-10T12:38:12.128Z,55
2017-04-10T12:39:12.446Z,60
2017-04-10T12:40:12.456Z,65
2017-04-10T12:41:12.462Z,65
2017-04-10T12:42:12.162Z,65
2017-04-10T12:43:12.501Z,65
2017-04-10T12:44:12.617Z,65
2017-04-10T12:45:12.531Z,50
2017-04-10T12:46:12.538Z,50
2017-04-10T12:47:12.571Z,45
2017-04-10T12:48:12.612Z,45
2017-04-10T12:49:12.619Z,55
2017-04-10T12:50:12.626Z,50
2017-04-10T12:51:12.642Z,45
2017-04-10T12:52:12.324Z,50
2017-04-10T12:53:12.794Z,45
2017-04-10T12:54:12.450Z,50
2017-04-10T12:55:12.530Z,45
2017-04-10T12:56:12.725Z,50
2017-04-10T12:57:12.754Z,50
2017-04-10T12:58:12.783Z,50
2017-04-10T12:59:12.833Z,50
2017-04-10T13:00:12.841Z,55
2017-04-10T13:01:12.864Z,65
2017-04-10T13:02:12.896Z,60
2017-04-10T13:03:12.930Z,65
2017-04-10T13:04:12.944Z,60
2017-04-10T13:05:12.978Z,60
2017-04-10T13:06:12.687Z,60
2017-04-10T13:07:12.716Z,60
2017-04-10T13:08:12.430Z,50
2017-04-10T13:09:12.767Z,50
2017-04-10T13:10:13.109Z,50
2017-04-10T13:11:13.133Z,55
2017-04-10T13:12:13.171Z,50
2017-04-10T13:13:13.191Z,65
2017-04-10T13:14:12.897Z,55
2017-04-10T13:15:13.243Z,55
2017-04-10T13:16:13.270Z,60
2017-04-10T13:17:13.302Z,60
2017-04-10T13:18:13.321Z,55
2017-04-10T13:19:13.355Z,60
2017-04-10T13:20:13.393Z,65
2017-04-10T13:21:12.771Z,60
2017-04-10T13:22:13.123Z,65
2017-04-10T13:23:13.148Z,65
2017-04-10T13:24:13.490Z,60
2017-04-10T13:25:13.198Z,55
2017-04-10T13:26:13.227Z,55
2017-04-10T13:27:13.246Z,55
2017-04-10T13:28:13.678Z,55
2017-04-10T13:29:13.614Z,55
2017-04-10T13:30:13.656Z,55
2017-04-10T13:31:13.426Z,50
2017-04-10T13:32:13.701Z,50
2017-04-10T13:33:13.092Z,45
2017-04-10T13:34:13.131Z,50
2017-04-10T13:35:13.150Z,45
2017-04-10T13:36:13.488Z,45
2017-04-10T13:37:13.516Z,45
2017-04-10T13:38:13.539Z,45
2017-04-10T13:39:13.876Z,45
2017-04-10T13:40:13.598Z,55
2017-04-10T13:41:13.309Z,55
2017-04-10T13:42:13.333Z,55
2017-04-10T13:43:13.989Z,50
2017-04-10T13:44:14.020Z,50
2017-04-10T13:45:14.047Z,50
2017-04-10T13:46:13.761Z,50
2017-04-10T13:47:13.472Z,50
2017-04-10T13:48:14.130Z,45
2017-04-10T13:49:13.835Z,40
2017-04-10T13:50:14.201Z,40
2017-04-10T13:51:13.889Z,35
2017-04-10T13:52:13.720Z,30
2017-04-10T13:53:14.043Z,40
2017-04-10T13:54:14.386Z,45
2017-04-10T13:55:14.080Z,45
2017-04-10T13:56:14.415Z,45
2017-04-10T13:57:14.450Z,45
2017-04-10T13:58:14.470Z,40
2017-04-10T13:59:14.476Z,35
2017-04-10T14:00:14.174Z,35
2017-04-10T14:01:14.163Z,25
2017-04-10T14:02:14.303Z,25
2017-04-10T14:03:14.614Z,30
2017-04-10T14:04:14.127Z,30
2017-04-10T14:05:14.773Z,30
2017-04-10T14:06:14.805Z,25
2017-04-10T14:07:14.787Z,25
2017-04-10T14:08:14.819Z,30
2017-04-10T14:09:14.475Z,30
2017-04-10T14:10:14.486Z,30
2017-04-10T14:11:14.618Z,25
2017-04-10T14:12:14.936Z,35
2017-04-10T14:13:14.954Z,35
2017-04-10T14:14:14.332Z,35
2017-04-10T14:15:14.966Z,30
2017-04-10T14:16:14.968Z,25
2017-04-10T14:17:14.661Z,20
2017-04-10T14:18:14.941Z,20
2017-04-10T14:19:14.946Z,20
2017-04-10T14:20:14.771Z,20
2017-04-10T14:21:14.992Z,15
2017-04-10T14:22:15.025Z,15
2017-04-10T14:23:15.164Z,20
2017-04-10T14:24:14.885Z,20
2017-04-10T14:25:15.208Z,20
2017-04-10T14:26:15.123Z,30
2017-04-10T14:27:15.151Z,35
2017-04-10T14:28:15.166Z,30
2017-04-10T14:29:14.986Z,25
2017-04-10T14:30:15.337Z,20
2017-04-10T14:31:14.935Z,20
2017-04-10T14:32:15.372Z,35
2017-04-10T14:33:15.090Z,40